sensor_id;sensor_type;location;lat;lon;timestamp;temperature;humidity
18191;DHT22;47004;51.366;12.348;2022-09-16T00:00:41;11.70;99.90
18191;DHT22;47004;51.366;12.348;2022-09-16T00:02:43;11.60;99.90
18191;DHT22;47004;51.366;12.348;2022-09-16T00:04:44;11.70;99.90
18191;DHT22;47004;51.366;12.348;2022-09-16T00:06:46;11.70;99.90
18191;DHT22;47004;51.366;12.348;2022-09-16T00:08:50;11.70;99.90
18191;DHT22;47004;51.366;12.348;2022-09-16T00:10:52;11.70;99.90
18191;DHT22;47004;51.366;12.348;2022-09-16T00:12:54;11.70;99.90
18191;DHT22;47004;51.366;12.348;2022-09-16T00:14:56;11.70;99.90
18191;DHT22;47004;51.366;12.348;2022-09-16T00:16:58;11.70;99.90
18191;DHT22;47004;51.366;12.348;2022-09-16T00:19:00;11.70;99.90
18191;DHT22;47004;51.366;12.348;2022-09-16T00:21:06;11.70;99.90
18191;DHT22;47004;51.366;12.348;2022-09-16T00:23:08;11.70;99.90
18191;DHT22;47004;51.366;12.348;2022-09-16T00:25:11;11.70;99.90
18191;DHT22;47004;51.366;12.348;2022-09-16T00:27:13;11.70;99.90
18191;DHT22;47004;51.366;12.348;2022-09-16T00:29:15;11.70;99.90
18191;DHT22;47004;51.366;12.348;2022-09-16T00:31:17;11.70;99.90
18191;DHT22;47004;51.366;12.348;2022-09-16T00:33:19;11.70;99.90
18191;DHT22;47004;51.366;12.348;2022-09-16T00:35:21;11.60;99.90
18191;DHT22;47004;51.366;12.348;2022-09-16T00:37:23;11.70;99.90
18191;DHT22;47004;51.366;12.348;2022-09-16T00:39:25;11.60;99.90
18191;DHT22;47004;51.366;12.348;2022-09-16T00:41:30;11.60;99.90
18191;DHT22;47004;51.366;12.348;2022-09-16T00:43:50;11.60;99.90
18191;DHT22;47004;51.366;12.348;2022-09-16T00:45:56;11.60;99.90
18191;DHT22;47004;51.366;12.348;2022-09-16T00:48:02;11.60;99.90
18191;DHT22;47004;51.366;12.348;2022-09-16T00:50:08;11.60;99.90
18191;DHT22;47004;51.366;12.348;2022-09-16T00:52:11;11.60;99.90
18191;DHT22;47004;51.366;12.348;2022-09-16T00:54:18;11.50;99.90
18191;DHT22;47004;51.366;12.348;2022-09-16T00:56:20;11.60;99.90
18191;DHT22;47004;51.366;12.348;2022-09-16T00:58:28;11.60;99.90
18191;DHT22;47004;51.366;12.348;2022-09-16T01:00:33;11.60;99.90
18191;DHT22;47004;51.366;12.348;2022-09-16T01:02:35;11.60;99.90
18191;DHT22;47004;51.366;12.348;2022-09-16T01:04:41;11.60;99.90
18191;DHT22;47004;51.366;12.348;2022-09-16T01:06:44;11.50;99.90
18191;DHT22;47004;51.366;12.348;2022-09-16T01:08:48;11.50;99.90
18191;DHT22;47004;51.366;12.348;2022-09-16T01:10:50;11.50;99.90
18191;DHT22;47004;51.366;12.348;2022-09-16T01:12:55;11.50;99.90
18191;DHT22;47004;51.366;12.348;2022-09-16T01:14:59;11.50;99.90
18191;DHT22;47004;51.366;12.348;2022-09-16T01:17:07;11.50;99.90
18191;DHT22;47004;51.366;12.348;2022-09-16T01:19:21;11.50;99.90
18191;DHT22;47004;51.366;12.348;2022-09-16T01:21:37;11.40;99.90
18191;DHT22;47004;51.366;12.348;2022-09-16T01:24:01;11.50;99.90
18191;DHT22;47004;51.366;12.348;2022-09-16T01:26:16;11.50;99.90
18191;DHT22;47004;51.366;12.348;2022-09-16T01:28:51;11.50;99.90
18191;DHT22;47004;51.366;12.348;2022-09-16T01:31:08;11.40;99.90
18191;DHT22;47004;51.366;12.348;2022-09-16T01:33:19;11.40;99.90
18191;DHT22;47004;51.366;12.348;2022-09-16T01:35:32;11.40;99.90
18191;DHT22;47004;51.366;12.348;2022-09-16T01:37:42;11.40;99.90
18191;DHT22;47004;51.366;12.348;2022-09-16T01:39:56;11.40;99.90
18191;DHT22;47004;51.366;12.348;2022-09-16T01:42:17;11.40;99.90
18191;DHT22;47004;51.366;12.348;2022-09-16T01:44:23;11.40;99.90
18191;DHT22;47004;51.366;12.348;2022-09-16T01:46:33;11.40;99.90
18191;DHT22;47004;51.366;12.348;2022-09-16T01:48:41;11.40;99.90
18191;DHT22;47004;51.366;12.348;2022-09-16T01:50:46;11.40;99.90
18191;DHT22;47004;51.366;12.348;2022-09-16T01:52:55;11.30;99.90
18191;DHT22;47004;51.366;12.348;2022-09-16T01:54:59;11.40;99.90
18191;DHT22;47004;51.366;12.348;2022-09-16T01:57:05;11.40;99.90
18191;DHT22;47004;51.366;12.348;2022-09-16T01:59:10;11.30;99.90
18191;DHT22;47004;51.366;12.348;2022-09-16T02:01:17;11.30;99.90
18191;DHT22;47004;51.366;12.348;2022-09-16T02:03:27;11.30;99.90
18191;DHT22;47004;51.366;12.348;2022-09-16T02:05:34;11.30;99.90
18191;DHT22;47004;51.366;12.348;2022-09-16T02:07:40;11.20;99.90
18191;DHT22;47004;51.366;12.348;2022-09-16T02:09:48;11.20;99.90
18191;DHT22;47004;51.366;12.348;2022-09-16T02:11:52;11.20;99.90
18191;DHT22;47004;51.366;12.348;2022-09-16T02:13:59;11.20;99.90
18191;DHT22;47004;51.366;12.348;2022-09-16T02:16:06;11.20;99.90
18191;DHT22;47004;51.366;12.348;2022-09-16T02:18:14;11.20;99.90
18191;DHT22;47004;51.366;12.348;2022-09-16T02:20:24;11.10;99.90
18191;DHT22;47004;51.366;12.348;2022-09-16T02:22:31;11.20;99.90
18191;DHT22;47004;51.366;12.348;2022-09-16T02:24:36;11.10;99.90
18191;DHT22;47004;51.366;12.348;2022-09-16T02:26:43;11.10;99.90
18191;DHT22;47004;51.366;12.348;2022-09-16T02:28:48;11.10;99.90
18191;DHT22;47004;51.366;12.348;2022-09-16T02:30:54;11.10;99.90
18191;DHT22;47004;51.366;12.348;2022-09-16T02:33:02;11.10;99.90
18191;DHT22;47004;51.366;12.348;2022-09-16T02:35:09;11.00;99.90
18191;DHT22;47004;51.366;12.348;2022-09-16T02:37:17;11.00;99.90
18191;DHT22;47004;51.366;12.348;2022-09-16T02:39:23;11.00;99.90
18191;DHT22;47004;51.366;12.348;2022-09-16T02:41:27;11.00;99.90
18191;DHT22;47004;51.366;12.348;2022-09-16T02:43:30;11.00;99.90
18191;DHT22;47004;51.366;12.348;2022-09-16T02:45:38;11.00;99.90
18191;DHT22;47004;51.366;12.348;2022-09-16T02:47:53;10.90;99.90
18191;DHT22;47004;51.366;12.348;2022-09-16T02:50:00;10.90;99.90
18191;DHT22;47004;51.366;12.348;2022-09-16T02:52:12;10.90;99.90
18191;DHT22;47004;51.366;12.348;2022-09-16T02:54:20;10.90;99.90
18191;DHT22;47004;51.366;12.348;2022-09-16T02:56:28;10.90;99.90
18191;DHT22;47004;51.366;12.348;2022-09-16T02:58:30;10.90;99.90
18191;DHT22;47004;51.366;12.348;2022-09-16T03:00:35;10.90;99.90
18191;DHT22;47004;51.366;12.348;2022-09-16T03:02:37;10.80;99.90
18191;DHT22;47004;51.366;12.348;2022-09-16T03:04:39;10.90;99.90
18191;DHT22;47004;51.366;12.348;2022-09-16T03:06:42;10.80;99.90
18191;DHT22;47004;51.366;12.348;2022-09-16T03:08:45;10.80;99.90
18191;DHT22;47004;51.366;12.348;2022-09-16T03:10:50;10.80;99.90
18191;DHT22;47004;51.366;12.348;2022-09-16T03:12:57;10.80;99.90
18191;DHT22;47004;51.366;12.348;2022-09-16T03:15:12;10.80;99.90
18191;DHT22;47004;51.366;12.348;2022-09-16T03:17:29;10.80;99.90
18191;DHT22;47004;51.366;12.348;2022-09-16T03:19:38;10.80;99.90
18191;DHT22;47004;51.366;12.348;2022-09-16T03:21:50;10.80;99.90
18191;DHT22;47004;51.366;12.348;2022-09-16T03:24:04;10.80;99.90
18191;DHT22;47004;51.366;12.348;2022-09-16T03:26:19;10.70;99.90
18191;DHT22;47004;51.366;12.348;2022-09-16T03:28:26;10.80;99.90
18191;DHT22;47004;51.366;12.348;2022-09-16T03:30:32;10.70;99.90
18191;DHT22;47004;51.366;12.348;2022-09-16T03:32:38;10.70;99.90
18191;DHT22;47004;51.366;12.348;2022-09-16T03:34:44;10.70;99.90
18191;DHT22;47004;51.366;12.348;2022-09-16T03:36:51;10.70;99.90
18191;DHT22;47004;51.366;12.348;2022-09-16T03:38:54;10.70;99.90
18191;DHT22;47004;51.366;12.348;2022-09-16T03:40:58;10.70;99.90
18191;DHT22;47004;51.366;12.348;2022-09-16T03:43:09;10.70;99.90
18191;DHT22;47004;51.366;12.348;2022-09-16T03:45:14;10.70;99.90
18191;DHT22;47004;51.366;12.348;2022-09-16T03:47:16;10.60;99.90
18191;DHT22;47004;51.366;12.348;2022-09-16T03:49:18;10.60;99.90
18191;DHT22;47004;51.366;12.348;2022-09-16T03:51:20;10.60;99.90
18191;DHT22;47004;51.366;12.348;2022-09-16T03:53:23;10.60;99.90
18191;DHT22;47004;51.366;12.348;2022-09-16T03:55:25;10.60;99.90
18191;DHT22;47004;51.366;12.348;2022-09-16T03:57:27;10.60;99.90
18191;DHT22;47004;51.366;12.348;2022-09-16T03:59:31;10.60;99.90
18191;DHT22;47004;51.366;12.348;2022-09-16T04:01:33;10.60;99.90
18191;DHT22;47004;51.366;12.348;2022-09-16T04:03:35;10.60;99.90
18191;DHT22;47004;51.366;12.348;2022-09-16T04:05:37;10.60;99.90
18191;DHT22;47004;51.366;12.348;2022-09-16T04:07:39;10.90;99.90
18191;DHT22;47004;51.366;12.348;2022-09-16T04:09:41;10.70;99.90
18191;DHT22;47004;51.366;12.348;2022-09-16T04:11:43;10.50;99.90
18191;DHT22;47004;51.366;12.348;2022-09-16T04:13:44;10.60;99.90
18191;DHT22;47004;51.366;12.348;2022-09-16T04:15:48;10.50;99.90
18191;DHT22;47004;51.366;12.348;2022-09-16T04:17:50;10.50;99.90
18191;DHT22;47004;51.366;12.348;2022-09-16T04:19:51;10.50;99.90
18191;DHT22;47004;51.366;12.348;2022-09-16T04:21:53;10.40;99.90
18191;DHT22;47004;51.366;12.348;2022-09-16T04:23:55;10.50;99.90
18191;DHT22;47004;51.366;12.348;2022-09-16T04:25:58;10.40;99.90
18191;DHT22;47004;51.366;12.348;2022-09-16T04:28:00;10.40;99.90
18191;DHT22;47004;51.366;12.348;2022-09-16T04:30:03;10.40;99.90
18191;DHT22;47004;51.366;12.348;2022-09-16T04:32:06;10.40;99.90
18191;DHT22;47004;51.366;12.348;2022-09-16T04:34:09;10.40;99.90
18191;DHT22;47004;51.366;12.348;2022-09-16T04:36:14;10.40;99.90
18191;DHT22;47004;51.366;12.348;2022-09-16T04:38:16;10.40;99.90
18191;DHT22;47004;51.366;12.348;2022-09-16T04:40:18;10.30;99.90
18191;DHT22;47004;51.366;12.348;2022-09-16T04:42:20;10.30;99.90
18191;DHT22;47004;51.366;12.348;2022-09-16T04:44:22;10.30;99.90
18191;DHT22;47004;51.366;12.348;2022-09-16T04:46:27;10.30;99.90
18191;DHT22;47004;51.366;12.348;2022-09-16T04:48:30;10.30;99.90
18191;DHT22;47004;51.366;12.348;2022-09-16T04:50:32;10.30;99.90
18191;DHT22;47004;51.366;12.348;2022-09-16T04:52:34;10.30;99.90
18191;DHT22;47004;51.366;12.348;2022-09-16T04:54:36;10.30;99.90
18191;DHT22;47004;51.366;12.348;2022-09-16T04:56:37;10.30;99.90
18191;DHT22;47004;51.366;12.348;2022-09-16T04:58:40;10.40;99.90
18191;DHT22;47004;51.366;12.348;2022-09-16T05:00:41;10.40;99.90
18191;DHT22;47004;51.366;12.348;2022-09-16T05:02:44;10.40;99.90
18191;DHT22;47004;51.366;12.348;2022-09-16T05:04:47;10.40;99.90
18191;DHT22;47004;51.366;12.348;2022-09-16T05:06:49;10.40;99.90
18191;DHT22;47004;51.366;12.348;2022-09-16T05:08:53;10.40;99.90
18191;DHT22;47004;51.366;12.348;2022-09-16T05:10:55;10.40;99.90
18191;DHT22;47004;51.366;12.348;2022-09-16T05:12:57;10.40;99.90
18191;DHT22;47004;51.366;12.348;2022-09-16T05:14:58;10.50;99.90
18191;DHT22;47004;51.366;12.348;2022-09-16T05:17:00;10.40;99.90
18191;DHT22;47004;51.366;12.348;2022-09-16T05:19:02;10.40;99.90
18191;DHT22;47004;51.366;12.348;2022-09-16T05:21:08;10.40;99.90
18191;DHT22;47004;51.366;12.348;2022-09-16T05:23:10;10.40;99.90
18191;DHT22;47004;51.366;12.348;2022-09-16T05:25:12;10.40;99.90
18191;DHT22;47004;51.366;12.348;2022-09-16T05:27:14;10.50;99.90
18191;DHT22;47004;51.366;12.348;2022-09-16T05:29:16;10.50;99.90
18191;DHT22;47004;51.366;12.348;2022-09-16T05:31:20;10.50;99.90
18191;DHT22;47004;51.366;12.348;2022-09-16T05:33:22;10.40;99.90
18191;DHT22;47004;51.366;12.348;2022-09-16T05:35:24;10.50;99.90
18191;DHT22;47004;51.366;12.348;2022-09-16T05:37:28;10.50;99.90
18191;DHT22;47004;51.366;12.348;2022-09-16T05:39:30;10.50;99.90
18191;DHT22;47004;51.366;12.348;2022-09-16T05:41:32;10.40;99.90
18191;DHT22;47004;51.366;12.348;2022-09-16T05:43:34;10.50;99.90
18191;DHT22;47004;51.366;12.348;2022-09-16T05:45:36;10.50;99.90
18191;DHT22;47004;51.366;12.348;2022-09-16T05:47:38;10.50;99.90
18191;DHT22;47004;51.366;12.348;2022-09-16T05:49:40;10.50;99.90
18191;DHT22;47004;51.366;12.348;2022-09-16T05:51:42;10.60;99.90
18191;DHT22;47004;51.366;12.348;2022-09-16T05:53:46;10.50;99.90
18191;DHT22;47004;51.366;12.348;2022-09-16T05:55:56;10.60;99.90
18191;DHT22;47004;51.366;12.348;2022-09-16T05:57:58;10.60;99.90
18191;DHT22;47004;51.366;12.348;2022-09-16T06:00:01;10.60;99.90
18191;DHT22;47004;51.366;12.348;2022-09-16T06:02:03;10.60;99.90
18191;DHT22;47004;51.366;12.348;2022-09-16T06:04:06;10.70;99.90
18191;DHT22;47004;51.366;12.348;2022-09-16T06:06:12;10.70;99.90
18191;DHT22;47004;51.366;12.348;2022-09-16T06:08:14;10.80;99.90
18191;DHT22;47004;51.366;12.348;2022-09-16T06:10:18;10.80;99.90
18191;DHT22;47004;51.366;12.348;2022-09-16T06:12:20;10.90;99.90
18191;DHT22;47004;51.366;12.348;2022-09-16T06:14:22;10.90;99.90
18191;DHT22;47004;51.366;12.348;2022-09-16T06:16:25;10.90;99.90
18191;DHT22;47004;51.366;12.348;2022-09-16T06:18:28;10.90;99.90
18191;DHT22;47004;51.366;12.348;2022-09-16T06:20:30;11.20;99.90
18191;DHT22;47004;51.366;12.348;2022-09-16T06:22:32;11.00;99.90
18191;DHT22;47004;51.366;12.348;2022-09-16T06:24:35;11.00;99.90
18191;DHT22;47004;51.366;12.348;2022-09-16T06:26:39;11.00;99.90
18191;DHT22;47004;51.366;12.348;2022-09-16T06:28:41;11.00;99.90
18191;DHT22;47004;51.366;12.348;2022-09-16T06:30:44;11.10;99.90
18191;DHT22;47004;51.366;12.348;2022-09-16T06:32:46;11.10;99.90
18191;DHT22;47004;51.366;12.348;2022-09-16T06:34:47;11.20;99.90
18191;DHT22;47004;51.366;12.348;2022-09-16T06:36:50;11.20;99.90
18191;DHT22;47004;51.366;12.348;2022-09-16T06:38:52;11.30;99.90
18191;DHT22;47004;51.366;12.348;2022-09-16T06:40:57;11.30;99.90
18191;DHT22;47004;51.366;12.348;2022-09-16T06:43:00;11.30;99.90
18191;DHT22;47004;51.366;12.348;2022-09-16T06:45:03;11.30;99.90
18191;DHT22;47004;51.366;12.348;2022-09-16T06:47:05;11.40;99.90
18191;DHT22;47004;51.366;12.348;2022-09-16T06:49:07;11.40;99.90
18191;DHT22;47004;51.366;12.348;2022-09-16T06:51:12;11.50;99.90
18191;DHT22;47004;51.366;12.348;2022-09-16T06:53:18;11.50;99.90
18191;DHT22;47004;51.366;12.348;2022-09-16T06:55:20;11.60;99.90
18191;DHT22;47004;51.366;12.348;2022-09-16T06:57:22;11.60;99.90
18191;DHT22;47004;51.366;12.348;2022-09-16T06:59:25;11.60;99.90
18191;DHT22;47004;51.366;12.348;2022-09-16T07:01:28;11.70;99.90
18191;DHT22;47004;51.366;12.348;2022-09-16T07:03:31;11.70;99.90
18191;DHT22;47004;51.366;12.348;2022-09-16T07:05:32;11.80;99.90
18191;DHT22;47004;51.366;12.348;2022-09-16T07:07:35;11.80;99.90
18191;DHT22;47004;51.366;12.348;2022-09-16T07:09:38;11.90;99.90
18191;DHT22;47004;51.366;12.348;2022-09-16T07:11:40;11.90;99.90
18191;DHT22;47004;51.366;12.348;2022-09-16T07:13:44;11.90;99.90
18191;DHT22;47004;51.366;12.348;2022-09-16T07:15:47;11.90;99.90
18191;DHT22;47004;51.366;12.348;2022-09-16T07:17:53;12.00;99.90
18191;DHT22;47004;51.366;12.348;2022-09-16T07:19:55;12.10;99.90
18191;DHT22;47004;51.366;12.348;2022-09-16T07:21:56;12.00;99.90
18191;DHT22;47004;51.366;12.348;2022-09-16T07:24:00;12.10;99.90
18191;DHT22;47004;51.366;12.348;2022-09-16T07:26:06;12.10;99.90
18191;DHT22;47004;51.366;12.348;2022-09-16T07:28:08;12.10;99.90
18191;DHT22;47004;51.366;12.348;2022-09-16T07:30:11;12.20;99.90
18191;DHT22;47004;51.366;12.348;2022-09-16T07:32:14;12.20;99.90
18191;DHT22;47004;51.366;12.348;2022-09-16T07:34:16;12.30;99.90
18191;DHT22;47004;51.366;12.348;2022-09-16T07:36:19;12.30;99.90
18191;DHT22;47004;51.366;12.348;2022-09-16T07:38:21;12.30;99.90
18191;DHT22;47004;51.366;12.348;2022-09-16T07:40:23;12.40;99.90
18191;DHT22;47004;51.366;12.348;2022-09-16T07:42:28;12.50;99.90
18191;DHT22;47004;51.366;12.348;2022-09-16T07:44:30;12.60;99.90
18191;DHT22;47004;51.366;12.348;2022-09-16T07:46:35;12.60;99.90
18191;DHT22;47004;51.366;12.348;2022-09-16T07:48:39;12.60;99.90
18191;DHT22;47004;51.366;12.348;2022-09-16T07:50:40;12.70;99.90
18191;DHT22;47004;51.366;12.348;2022-09-16T07:52:42;12.70;99.90
18191;DHT22;47004;51.366;12.348;2022-09-16T07:54:45;12.80;99.90
18191;DHT22;47004;51.366;12.348;2022-09-16T07:56:47;12.80;99.90
18191;DHT22;47004;51.366;12.348;2022-09-16T07:58:49;12.90;99.90
18191;DHT22;47004;51.366;12.348;2022-09-16T08:00:51;12.90;99.90
18191;DHT22;47004;51.366;12.348;2022-09-16T08:02:55;12.90;99.90
18191;DHT22;47004;51.366;12.348;2022-09-16T08:04:59;13.00;99.90
18191;DHT22;47004;51.366;12.348;2022-09-16T08:07:00;13.00;99.90
18191;DHT22;47004;51.366;12.348;2022-09-16T08:09:02;13.10;99.90
18191;DHT22;47004;51.366;12.348;2022-09-16T08:11:05;13.10;99.90
18191;DHT22;47004;51.366;12.348;2022-09-16T08:13:08;13.10;99.90
18191;DHT22;47004;51.366;12.348;2022-09-16T08:15:10;13.10;99.90
18191;DHT22;47004;51.366;12.348;2022-09-16T08:17:12;13.10;99.90
18191;DHT22;47004;51.366;12.348;2022-09-16T08:19:14;13.10;99.90
18191;DHT22;47004;51.366;12.348;2022-09-16T08:21:20;13.10;99.90
18191;DHT22;47004;51.366;12.348;2022-09-16T08:23:22;13.10;99.90
18191;DHT22;47004;51.366;12.348;2022-09-16T08:25:24;13.10;99.90
18191;DHT22;47004;51.366;12.348;2022-09-16T08:27:26;13.20;99.90
18191;DHT22;47004;51.366;12.348;2022-09-16T08:29:28;13.20;99.90
18191;DHT22;47004;51.366;12.348;2022-09-16T08:31:30;13.20;99.90
18191;DHT22;47004;51.366;12.348;2022-09-16T08:33:32;13.20;99.90
18191;DHT22;47004;51.366;12.348;2022-09-16T08:35:33;13.20;99.90
18191;DHT22;47004;51.366;12.348;2022-09-16T08:37:37;13.20;99.90
18191;DHT22;47004;51.366;12.348;2022-09-16T08:39:39;13.30;99.90
18191;DHT22;47004;51.366;12.348;2022-09-16T08:44:14;13.40;99.90
18191;DHT22;47004;51.366;12.348;2022-09-16T08:46:22;13.40;99.90
18191;DHT22;47004;51.366;12.348;2022-09-16T08:48:35;13.50;99.90
18191;DHT22;47004;51.366;12.348;2022-09-16T08:50:40;13.60;99.90
18191;DHT22;47004;51.366;12.348;2022-09-16T08:52:44;13.60;99.90
18191;DHT22;47004;51.366;12.348;2022-09-16T08:54:50;13.70;99.90
18191;DHT22;47004;51.366;12.348;2022-09-16T08:56:54;13.80;99.90
18191;DHT22;47004;51.366;12.348;2022-09-16T08:58:59;13.80;99.90
18191;DHT22;47004;51.366;12.348;2022-09-16T09:01:09;13.80;99.90
18191;DHT22;47004;51.366;12.348;2022-09-16T09:03:16;13.90;99.90
18191;DHT22;47004;51.366;12.348;2022-09-16T09:05:29;14.00;99.90
18191;DHT22;47004;51.366;12.348;2022-09-16T09:07:40;14.00;99.90
18191;DHT22;47004;51.366;12.348;2022-09-16T09:09:54;14.00;99.90
18191;DHT22;47004;51.366;12.348;2022-09-16T09:12:19;14.10;99.90
18191;DHT22;47004;51.366;12.348;2022-09-16T09:14:32;14.10;99.90
18191;DHT22;47004;51.366;12.348;2022-09-16T09:16:40;14.10;99.90
18191;DHT22;47004;51.366;12.348;2022-09-16T09:18:56;14.20;99.90
18191;DHT22;47004;51.366;12.348;2022-09-16T09:21:12;14.20;99.90
18191;DHT22;47004;51.366;12.348;2022-09-16T09:23:29;14.20;99.90
18191;DHT22;47004;51.366;12.348;2022-09-16T09:25:40;14.20;99.90
18191;DHT22;47004;51.366;12.348;2022-09-16T09:27:51;14.20;99.90
18191;DHT22;47004;51.366;12.348;2022-09-16T09:30:07;14.00;99.90
18191;DHT22;47004;51.366;12.348;2022-09-16T09:32:19;13.80;99.90
18191;DHT22;47004;51.366;12.348;2022-09-16T09:34:30;13.60;99.90
18191;DHT22;47004;51.366;12.348;2022-09-16T09:36:45;13.40;99.90
18191;DHT22;47004;51.366;12.348;2022-09-16T09:39:15;13.40;99.90
18191;DHT22;47004;51.366;12.348;2022-09-16T09:41:26;13.20;99.90
18191;DHT22;47004;51.366;12.348;2022-09-16T09:43:31;13.30;99.90
18191;DHT22;47004;51.366;12.348;2022-09-16T09:45:38;13.30;99.90
18191;DHT22;47004;51.366;12.348;2022-09-16T09:47:44;13.30;99.90
18191;DHT22;47004;51.366;12.348;2022-09-16T09:49:50;13.30;99.90
18191;DHT22;47004;51.366;12.348;2022-09-16T09:51:56;13.30;99.90
18191;DHT22;47004;51.366;12.348;2022-09-16T09:54:02;13.30;99.90
18191;DHT22;47004;51.366;12.348;2022-09-16T09:56:14;13.30;99.90
18191;DHT22;47004;51.366;12.348;2022-09-16T09:58:23;13.30;99.90
18191;DHT22;47004;51.366;12.348;2022-09-16T10:00:27;13.30;99.90
18191;DHT22;47004;51.366;12.348;2022-09-16T10:02:29;13.40;99.90
18191;DHT22;47004;51.366;12.348;2022-09-16T10:04:38;13.40;99.90
18191;DHT22;47004;51.366;12.348;2022-09-16T10:06:41;13.50;99.90
18191;DHT22;47004;51.366;12.348;2022-09-16T10:08:45;13.60;99.90
18191;DHT22;47004;51.366;12.348;2022-09-16T10:10:48;13.70;99.90
18191;DHT22;47004;51.366;12.348;2022-09-16T10:12:52;13.70;99.90
18191;DHT22;47004;51.366;12.348;2022-09-16T10:14:55;13.70;99.90
18191;DHT22;47004;51.366;12.348;2022-09-16T10:16:59;13.80;99.90
18191;DHT22;47004;51.366;12.348;2022-09-16T10:19:06;13.80;99.90
18191;DHT22;47004;51.366;12.348;2022-09-16T10:21:16;13.90;99.90
18191;DHT22;47004;51.366;12.348;2022-09-16T10:23:22;14.00;99.90
18191;DHT22;47004;51.366;12.348;2022-09-16T10:25:26;14.00;99.90
18191;DHT22;47004;51.366;12.348;2022-09-16T10:27:30;14.10;99.90
18191;DHT22;47004;51.366;12.348;2022-09-16T10:29:35;14.20;99.90
18191;DHT22;47004;51.366;12.348;2022-09-16T10:31:39;14.20;99.90
18191;DHT22;47004;51.366;12.348;2022-09-16T10:33:43;14.30;99.90
18191;DHT22;47004;51.366;12.348;2022-09-16T10:35:51;14.40;99.90
18191;DHT22;47004;51.366;12.348;2022-09-16T10:37:58;14.50;99.90
18191;DHT22;47004;51.366;12.348;2022-09-16T10:40:01;14.60;99.90
18191;DHT22;47004;51.366;12.348;2022-09-16T10:42:18;14.70;99.90
18191;DHT22;47004;51.366;12.348;2022-09-16T10:44:23;14.70;99.90
18191;DHT22;47004;51.366;12.348;2022-09-16T10:46:27;14.80;99.90
18191;DHT22;47004;51.366;12.348;2022-09-16T10:48:33;14.90;99.90
18191;DHT22;47004;51.366;12.348;2022-09-16T10:50:35;15.00;99.90
18191;DHT22;47004;51.366;12.348;2022-09-16T10:52:41;15.10;99.90
18191;DHT22;47004;51.366;12.348;2022-09-16T10:54:43;15.20;99.90
18191;DHT22;47004;51.366;12.348;2022-09-16T10:56:47;15.20;99.90
18191;DHT22;47004;51.366;12.348;2022-09-16T10:59:01;15.30;99.90
18191;DHT22;47004;51.366;12.348;2022-09-16T11:01:18;15.40;99.90
18191;DHT22;47004;51.366;12.348;2022-09-16T11:04:15;15.60;99.90
18191;DHT22;47004;51.366;12.348;2022-09-16T11:06:32;15.70;99.90
18191;DHT22;47004;51.366;12.348;2022-09-16T11:08:48;15.80;99.90
18191;DHT22;47004;51.366;12.348;2022-09-16T11:11:00;15.90;99.90
18191;DHT22;47004;51.366;12.348;2022-09-16T11:13:20;16.00;99.90
18191;DHT22;47004;51.366;12.348;2022-09-16T11:15:35;16.00;99.90
18191;DHT22;47004;51.366;12.348;2022-09-16T11:17:48;16.20;99.90
18191;DHT22;47004;51.366;12.348;2022-09-16T11:20:03;16.20;99.90
18191;DHT22;47004;51.366;12.348;2022-09-16T11:22:16;16.30;99.90
18191;DHT22;47004;51.366;12.348;2022-09-16T11:24:36;16.40;99.90
18191;DHT22;47004;51.366;12.348;2022-09-16T11:26:45;16.40;99.90
18191;DHT22;47004;51.366;12.348;2022-09-16T11:29:04;16.40;99.90
18191;DHT22;47004;51.366;12.348;2022-09-16T11:31:14;16.40;99.90
18191;DHT22;47004;51.366;12.348;2022-09-16T11:33:25;16.50;99.90
18191;DHT22;47004;51.366;12.348;2022-09-16T11:35:46;16.50;99.90
18191;DHT22;47004;51.366;12.348;2022-09-16T11:38:04;16.50;99.90
18191;DHT22;47004;51.366;12.348;2022-09-16T11:40:19;16.60;95.90
18191;DHT22;47004;51.366;12.348;2022-09-16T11:42:31;16.60;96.50
18191;DHT22;47004;51.366;12.348;2022-09-16T11:44:44;16.70;92.70
18191;DHT22;47004;51.366;12.348;2022-09-16T11:46:55;16.70;95.20
18191;DHT22;47004;51.366;12.348;2022-09-16T11:49:08;16.60;90.00
18191;DHT22;47004;51.366;12.348;2022-09-16T11:51:25;16.60;90.00
18191;DHT22;47004;51.366;12.348;2022-09-16T11:53:50;16.60;91.30
18191;DHT22;47004;51.366;12.348;2022-09-16T11:56:01;16.50;89.30
18191;DHT22;47004;51.366;12.348;2022-09-16T11:58:09;16.60;92.70
18191;DHT22;47004;51.366;12.348;2022-09-16T12:00:16;16.50;89.80
18191;DHT22;47004;51.366;12.348;2022-09-16T12:02:22;16.60;91.10
18191;DHT22;47004;51.366;12.348;2022-09-16T12:04:28;16.60;82.60
18191;DHT22;47004;51.366;12.348;2022-09-16T12:06:38;16.50;86.90
18191;DHT22;47004;51.366;12.348;2022-09-16T12:08:51;16.40;90.40
18191;DHT22;47004;51.366;12.348;2022-09-16T12:10:57;16.30;92.30
18191;DHT22;47004;51.366;12.348;2022-09-16T12:13:05;16.20;95.00
18191;DHT22;47004;51.366;12.348;2022-09-16T12:15:15;16.10;99.90
18191;DHT22;47004;51.366;12.348;2022-09-16T12:17:21;15.80;99.90
18191;DHT22;47004;51.366;12.348;2022-09-16T12:19:28;15.60;99.90
18191;DHT22;47004;51.366;12.348;2022-09-16T12:21:36;15.50;99.90
18191;DHT22;47004;51.366;12.348;2022-09-16T12:23:43;15.30;99.90
18191;DHT22;47004;51.366;12.348;2022-09-16T12:25:50;15.30;99.90
18191;DHT22;47004;51.366;12.348;2022-09-16T12:27:59;15.30;99.90
18191;DHT22;47004;51.366;12.348;2022-09-16T12:30:04;15.40;99.90
18191;DHT22;47004;51.366;12.348;2022-09-16T12:32:10;15.50;99.90
18191;DHT22;47004;51.366;12.348;2022-09-16T12:34:16;15.70;99.30
18191;DHT22;47004;51.366;12.348;2022-09-16T12:36:23;15.90;99.90
18191;DHT22;47004;51.366;12.348;2022-09-16T12:38:27;16.20;96.10
18191;DHT22;47004;51.366;12.348;2022-09-16T12:40:35;16.50;92.60
18191;DHT22;47004;51.366;12.348;2022-09-16T12:51:13;17.50;81.40
18191;DHT22;47004;51.366;12.348;2022-09-16T12:53:38;17.80;78.70
18191;DHT22;47004;51.366;12.348;2022-09-16T12:55:56;18.00;78.50
18191;DHT22;47004;51.366;12.348;2022-09-16T12:58:14;18.20;71.20
18191;DHT22;47004;51.366;12.348;2022-09-16T13:00:20;18.30;61.30
18191;DHT22;47004;51.366;12.348;2022-09-16T13:02:28;18.50;64.30
18191;DHT22;47004;51.366;12.348;2022-09-16T13:04:38;18.70;61.70
18191;DHT22;47004;51.366;12.348;2022-09-16T13:06:45;18.80;57.70
18191;DHT22;47004;51.366;12.348;2022-09-16T13:08:49;19.00;61.00
18191;DHT22;47004;51.366;12.348;2022-09-16T13:10:57;19.20;57.80
18191;DHT22;47004;51.366;12.348;2022-09-16T13:13:01;19.30;54.80
18191;DHT22;47004;51.366;12.348;2022-09-16T13:15:05;19.40;56.40